Fuerteventura > ESTACION METEOROLÓGICA Pájara

DATOS ACTUALES Online

Ultima actulizacion 29 minutos

18.8 ºC

Temperatura

74

Humedad (%)

992.66

Presión (mb)

0

Precipitación (mm)

17.1 N

Viento (Km/h)

DATOS DIARIOS

Temperatura últimas 24 horas (ºC)

Humedad últimas 24 horas (%)

Presión atmosférica últimas 24 horas (mb)

Precipitaciones últimas 23 horas (mm)

Viento últimas 24 horas (Km/h)

Hora Temperatura (°C) ºC Precipitación (mm) mm Presión (mb) mb Humedad (%) % Viento (Km/h) km/h
28 - 23:00 18.1 0.2 993 79 16.2 N
29 - 00:00 17.9 0.2 993 80 17.4 N
29 - 01:00 17.7 0 993 79 16.6 N
29 - 02:00 18.1 0 993 77 16.1 NO
29 - 03:00 18.4 0 992 79 17.2 N
29 - 04:00 18.2 0 992 74 18.5 N
29 - 05:00 17.6 0 991 74 7.5 N
29 - 06:00 16.9 0 992 79 2.6 SW
29 - 07:00 17.1 0 992 78 2.5 SW
29 - 08:00 19.6 0 993 70 7 N
29 - 09:00 19.9 0 993 68 15.1 NO
29 - 10:00 20.8 0 993 63 21.9 NO
29 - 11:00 21.5 0 993 61 29.7 N
29 - 12:00 21.6 0 993 63 27.6 N
29 - 13:00 22.1 0 993 61 25.3 N
29 - 14:00 22.2 0 993 58 28.3 N
29 - 15:00 22.8 0 992 54 27.5 N
29 - 16:00 22.3 0 992 54 23.3 N
29 - 17:00 21.3 0 992 60 28.8 N
29 - 18:00 20.9 0 992 64 22.9 N
29 - 19:00 20.1 0 992 67 25.3 N
29 - 20:00 19.7 0 992 68 17.7 N
29 - 21:00 19.1 0 992 71 15.6 N
29 - 22:00 19 0 992 73 18.9 NO
29 - 23:00 18.8 0 993 74 17.1 N
Apalmet utiliza cookies propias y de terceros para mejorar la usabilidad y la experiencia web. Política de cookies.